sensor_id;sensor_type;location;lat;lon;timestamp;P1;durP1;ratioP1;P2;durP2;ratioP2
6725;SDS011;3400;48.506;11.692;2023-04-15T00:01:05;10.20;;;9.03;;
6725;SDS011;3400;48.506;11.692;2023-04-15T00:03:33;9.17;;;8.27;;
6725;SDS011;3400;48.506;11.692;2023-04-15T00:06:01;10.07;;;8.90;;
6725;SDS011;3400;48.506;11.692;2023-04-15T00:08:29;11.20;;;8.47;;
6725;SDS011;3400;48.506;11.692;2023-04-15T00:10:58;9.97;;;8.83;;
6725;SDS011;3400;48.506;11.692;2023-04-15T00:13:28;10.57;;;9.10;;
6725;SDS011;3400;48.506;11.692;2023-04-15T00:15:57;10.80;;;9.53;;
6725;SDS011;3400;48.506;11.692;2023-04-15T00:18:25;9.17;;;8.23;;
6725;SDS011;3400;48.506;11.692;2023-04-15T00:20:54;10.03;;;8.67;;
6725;SDS011;3400;48.506;11.692;2023-04-15T00:23:22;10.00;;;8.67;;
6725;SDS011;3400;48.506;11.692;2023-04-15T00:25:50;9.47;;;8.47;;
6725;SDS011;3400;48.506;11.692;2023-04-15T00:28:17;10.37;;;8.90;;
6725;SDS011;3400;48.506;11.692;2023-04-15T00:30:47;10.97;;;8.67;;
6725;SDS011;3400;48.506;11.692;2023-04-15T00:33:15;9.40;;;8.40;;
6725;SDS011;3400;48.506;11.692;2023-04-15T00:35:43;10.20;;;7.93;;
6725;SDS011;3400;48.506;11.692;2023-04-15T00:38:11;8.97;;;8.07;;
6725;SDS011;3400;48.506;11.692;2023-04-15T00:40:40;8.73;;;7.93;;
6725;SDS011;3400;48.506;11.692;2023-04-15T00:43:09;8.83;;;7.63;;
6725;SDS011;3400;48.506;11.692;2023-04-15T00:45:37;9.33;;;8.43;;
6725;SDS011;3400;48.506;11.692;2023-04-15T00:48:06;9.17;;;8.10;;
6725;SDS011;3400;48.506;11.692;2023-04-15T00:50:35;8.40;;;7.60;;
6725;SDS011;3400;48.506;11.692;2023-04-15T00:53:03;9.43;;;7.50;;
6725;SDS011;3400;48.506;11.692;2023-04-15T00:55:31;9.47;;;8.00;;
6725;SDS011;3400;48.506;11.692;2023-04-15T00:57:59;8.13;;;7.33;;
6725;SDS011;3400;48.506;11.692;2023-04-15T01:00:27;7.97;;;7.17;;
6725;SDS011;3400;48.506;11.692;2023-04-15T01:02:55;8.67;;;7.87;;
6725;SDS011;3400;48.506;11.692;2023-04-15T01:05:24;8.73;;;7.83;;
6725;SDS011;3400;48.506;11.692;2023-04-15T01:07:52;10.10;;;7.87;;
6725;SDS011;3400;48.506;11.692;2023-04-15T01:10:20;8.87;;;7.70;;
6725;SDS011;3400;48.506;11.692;2023-04-15T01:12:48;9.27;;;7.70;;
6725;SDS011;3400;48.506;11.692;2023-04-15T01:15:16;10.37;;;7.73;;
6725;SDS011;3400;48.506;11.692;2023-04-15T01:17:44;9.57;;;7.37;;
6725;SDS011;3400;48.506;11.692;2023-04-15T01:20:12;7.87;;;6.67;;
6725;SDS011;3400;48.506;11.692;2023-04-15T01:22:42;7.63;;;6.83;;
6725;SDS011;3400;48.506;11.692;2023-04-15T01:25:11;7.63;;;6.87;;
6725;SDS011;3400;48.506;11.692;2023-04-15T01:27:43;8.70;;;7.60;;
6725;SDS011;3400;48.506;11.692;2023-04-15T01:30:11;8.53;;;7.30;;
6725;SDS011;3400;48.506;11.692;2023-04-15T01:32:39;11.77;;;7.33;;
6725;SDS011;3400;48.506;11.692;2023-04-15T01:35:25;8.80;;;6.87;;
6725;SDS011;3400;48.506;11.692;2023-04-15T01:37:53;8.97;;;6.43;;
6725;SDS011;3400;48.506;11.692;2023-04-15T01:40:24;8.67;;;7.77;;
6725;SDS011;3400;48.506;11.692;2023-04-15T01:42:55;7.73;;;6.93;;
6725;SDS011;3400;48.506;11.692;2023-04-15T01:45:24;12.57;;;7.20;;
6725;SDS011;3400;48.506;11.692;2023-04-15T01:47:53;9.93;;;6.87;;
6725;SDS011;3400;48.506;11.692;2023-04-15T01:50:23;8.23;;;7.40;;
6725;SDS011;3400;48.506;11.692;2023-04-15T01:52:55;8.77;;;7.70;;
6725;SDS011;3400;48.506;11.692;2023-04-15T01:55:24;10.00;;;8.40;;
6725;SDS011;3400;48.506;11.692;2023-04-15T01:57:53;8.83;;;7.93;;
6725;SDS011;3400;48.506;11.692;2023-04-15T02:00:24;8.50;;;7.60;;
6725;SDS011;3400;48.506;11.692;2023-04-15T02:02:53;9.13;;;7.93;;
6725;SDS011;3400;48.506;11.692;2023-04-15T02:05:25;8.67;;;7.73;;
6725;SDS011;3400;48.506;11.692;2023-04-15T02:07:54;8.90;;;7.73;;
6725;SDS011;3400;48.506;11.692;2023-04-15T02:10:23;9.97;;;7.70;;
6725;SDS011;3400;48.506;11.692;2023-04-15T02:12:53;8.63;;;7.77;;
6725;SDS011;3400;48.506;11.692;2023-04-15T02:15:22;8.40;;;7.57;;
6725;SDS011;3400;48.506;11.692;2023-04-15T02:17:53;10.47;;;8.33;;
6725;SDS011;3400;48.506;11.692;2023-04-15T02:20:22;9.00;;;8.10;;
6725;SDS011;3400;48.506;11.692;2023-04-15T02:22:52;11.30;;;8.30;;
6725;SDS011;3400;48.506;11.692;2023-04-15T02:25:22;10.50;;;8.23;;
6725;SDS011;3400;48.506;11.692;2023-04-15T02:27:51;9.00;;;8.17;;
6725;SDS011;3400;48.506;11.692;2023-04-15T02:30:22;9.37;;;8.13;;
6725;SDS011;3400;48.506;11.692;2023-04-15T02:32:53;9.17;;;8.27;;
6725;SDS011;3400;48.506;11.692;2023-04-15T02:35:25;10.93;;;9.40;;
6725;SDS011;3400;48.506;11.692;2023-04-15T02:37:55;8.83;;;7.93;;
6725;SDS011;3400;48.506;11.692;2023-04-15T02:40:24;10.43;;;8.80;;
6725;SDS011;3400;48.506;11.692;2023-04-15T02:42:53;11.03;;;8.03;;
6725;SDS011;3400;48.506;11.692;2023-04-15T02:45:22;11.50;;;9.53;;
6725;SDS011;3400;48.506;11.692;2023-04-15T02:47:55;9.37;;;8.47;;
6725;SDS011;3400;48.506;11.692;2023-04-15T02:50:26;11.80;;;8.83;;
6725;SDS011;3400;48.506;11.692;2023-04-15T02:52:55;12.93;;;9.27;;
6725;SDS011;3400;48.506;11.692;2023-04-15T02:55:24;11.47;;;8.93;;
6725;SDS011;3400;48.506;11.692;2023-04-15T02:57:53;11.10;;;8.83;;
6725;SDS011;3400;48.506;11.692;2023-04-15T03:00:24;10.17;;;9.13;;
6725;SDS011;3400;48.506;11.692;2023-04-15T03:02:58;10.47;;;9.47;;
6725;SDS011;3400;48.506;11.692;2023-04-15T03:05:27;12.87;;;10.33;;
6725;SDS011;3400;48.506;11.692;2023-04-15T03:07:57;12.40;;;8.87;;
6725;SDS011;3400;48.506;11.692;2023-04-15T03:10:27;10.37;;;9.27;;
6725;SDS011;3400;48.506;11.692;2023-04-15T03:12:56;10.47;;;9.43;;
6725;SDS011;3400;48.506;11.692;2023-04-15T03:15:27;13.67;;;10.37;;
6725;SDS011;3400;48.506;11.692;2023-04-15T03:17:57;13.17;;;9.77;;
6725;SDS011;3400;48.506;11.692;2023-04-15T03:20:27;11.73;;;10.20;;
6725;SDS011;3400;48.506;11.692;2023-04-15T03:22:56;11.90;;;10.57;;
6725;SDS011;3400;48.506;11.692;2023-04-15T03:25:26;13.37;;;10.63;;
6725;SDS011;3400;48.506;11.692;2023-04-15T03:27:55;10.63;;;9.63;;
6725;SDS011;3400;48.506;11.692;2023-04-15T03:30:24;13.10;;;10.37;;
6725;SDS011;3400;48.506;11.692;2023-04-15T03:32:53;11.93;;;10.70;;
6725;SDS011;3400;48.506;11.692;2023-04-15T03:35:24;11.77;;;10.37;;
6725;SDS011;3400;48.506;11.692;2023-04-15T03:37:53;12.30;;;11.10;;
6725;SDS011;3400;48.506;11.692;2023-04-15T03:40:22;12.03;;;10.73;;
6725;SDS011;3400;48.506;11.692;2023-04-15T03:42:51;11.73;;;9.97;;
6725;SDS011;3400;48.506;11.692;2023-04-15T03:45:20;11.67;;;10.13;;
6725;SDS011;3400;48.506;11.692;2023-04-15T03:47:49;11.67;;;10.47;;
6725;SDS011;3400;48.506;11.692;2023-04-15T03:50:19;12.97;;;11.23;;
6725;SDS011;3400;48.506;11.692;2023-04-15T03:52:49;13.40;;;10.33;;
6725;SDS011;3400;48.506;11.692;2023-04-15T03:55:18;13.93;;;10.23;;
6725;SDS011;3400;48.506;11.692;2023-04-15T03:57:47;11.37;;;9.77;;
6725;SDS011;3400;48.506;11.692;2023-04-15T04:00:17;12.20;;;10.83;;
6725;SDS011;3400;48.506;11.692;2023-04-15T04:02:46;11.10;;;9.90;;
6725;SDS011;3400;48.506;11.692;2023-04-15T04:05:15;11.20;;;9.57;;
6725;SDS011;3400;48.506;11.692;2023-04-15T04:07:45;10.80;;;9.80;;
6725;SDS011;3400;48.506;11.692;2023-04-15T04:10:15;11.30;;;10.20;;
6725;SDS011;3400;48.506;11.692;2023-04-15T04:12:45;11.80;;;10.00;;
6725;SDS011;3400;48.506;11.692;2023-04-15T04:15:14;11.10;;;10.03;;
6725;SDS011;3400;48.506;11.692;2023-04-15T04:17:44;11.63;;;10.13;;
6725;SDS011;3400;48.506;11.692;2023-04-15T04:20:13;15.97;;;10.60;;
6725;SDS011;3400;48.506;11.692;2023-04-15T04:22:42;12.80;;;10.80;;
6725;SDS011;3400;48.506;11.692;2023-04-15T04:25:11;14.73;;;10.50;;
6725;SDS011;3400;48.506;11.692;2023-04-15T04:27:42;14.17;;;11.53;;
6725;SDS011;3400;48.506;11.692;2023-04-15T04:30:12;13.37;;;11.13;;
6725;SDS011;3400;48.506;11.692;2023-04-15T04:32:41;11.60;;;10.10;;
6725;SDS011;3400;48.506;11.692;2023-04-15T04:35:10;13.40;;;11.10;;
6725;SDS011;3400;48.506;11.692;2023-04-15T04:37:39;11.57;;;9.97;;
6725;SDS011;3400;48.506;11.692;2023-04-15T04:40:09;11.53;;;10.33;;
6725;SDS011;3400;48.506;11.692;2023-04-15T04:42:38;16.60;;;10.87;;
6725;SDS011;3400;48.506;11.692;2023-04-15T04:45:09;13.07;;;11.03;;
6725;SDS011;3400;48.506;11.692;2023-04-15T04:47:39;12.10;;;10.70;;
6725;SDS011;3400;48.506;11.692;2023-04-15T04:50:08;12.80;;;11.30;;
6725;SDS011;3400;48.506;11.692;2023-04-15T04:52:38;12.47;;;10.97;;
6725;SDS011;3400;48.506;11.692;2023-04-15T04:55:07;11.57;;;9.80;;
6725;SDS011;3400;48.506;11.692;2023-04-15T04:57:36;13.70;;;10.53;;
6725;SDS011;3400;48.506;11.692;2023-04-15T05:00:06;11.43;;;10.23;;
6725;SDS011;3400;48.506;11.692;2023-04-15T05:02:37;12.07;;;10.90;;
6725;SDS011;3400;48.506;11.692;2023-04-15T05:05:08;14.93;;;10.10;;
6725;SDS011;3400;48.506;11.692;2023-04-15T05:07:37;11.07;;;9.90;;
6725;SDS011;3400;48.506;11.692;2023-04-15T05:10:07;13.53;;;10.30;;
6725;SDS011;3400;48.506;11.692;2023-04-15T05:12:36;12.10;;;10.90;;
6725;SDS011;3400;48.506;11.692;2023-04-15T05:15:06;12.67;;;10.93;;
6725;SDS011;3400;48.506;11.692;2023-04-15T05:17:37;11.47;;;9.90;;
6725;SDS011;3400;48.506;11.692;2023-04-15T05:20:06;12.43;;;10.17;;
6725;SDS011;3400;48.506;11.692;2023-04-15T05:22:36;12.00;;;10.20;;
6725;SDS011;3400;48.506;11.692;2023-04-15T05:25:06;11.40;;;10.20;;
6725;SDS011;3400;48.506;11.692;2023-04-15T05:27:35;11.33;;;10.23;;
6725;SDS011;3400;48.506;11.692;2023-04-15T05:30:05;12.47;;;9.60;;
6725;SDS011;3400;48.506;11.692;2023-04-15T05:32:34;11.10;;;9.40;;
6725;SDS011;3400;48.506;11.692;2023-04-15T05:35:05;11.97;;;9.10;;
6725;SDS011;3400;48.506;11.692;2023-04-15T05:37:35;13.03;;;10.07;;
6725;SDS011;3400;48.506;11.692;2023-04-15T05:40:04;12.80;;;9.50;;
6725;SDS011;3400;48.506;11.692;2023-04-15T05:42:34;12.57;;;9.97;;
6725;SDS011;3400;48.506;11.692;2023-04-15T05:45:03;13.43;;;9.53;;
6725;SDS011;3400;48.506;11.692;2023-04-15T05:47:35;10.10;;;9.07;;
6725;SDS011;3400;48.506;11.692;2023-04-15T05:50:06;10.23;;;9.13;;
6725;SDS011;3400;48.506;11.692;2023-04-15T05:52:35;11.80;;;9.57;;
6725;SDS011;3400;48.506;11.692;2023-04-15T05:55:04;15.43;;;9.57;;
6725;SDS011;3400;48.506;11.692;2023-04-15T05:57:34;12.00;;;9.33;;
6725;SDS011;3400;48.506;11.692;2023-04-15T06:00:04;9.07;;;8.17;;
6725;SDS011;3400;48.506;11.692;2023-04-15T06:02:39;10.13;;;8.50;;
6725;SDS011;3400;48.506;11.692;2023-04-15T06:05:13;9.93;;;8.93;;
6725;SDS011;3400;48.506;11.692;2023-04-15T06:07:42;10.57;;;9.47;;
6725;SDS011;3400;48.506;11.692;2023-04-15T06:10:12;9.57;;;8.43;;
6725;SDS011;3400;48.506;11.692;2023-04-15T06:12:42;11.47;;;9.50;;
6725;SDS011;3400;48.506;11.692;2023-04-15T06:15:11;11.03;;;8.70;;
6725;SDS011;3400;48.506;11.692;2023-04-15T06:17:40;10.23;;;9.23;;
6725;SDS011;3400;48.506;11.692;2023-04-15T06:20:10;10.67;;;8.30;;
6725;SDS011;3400;48.506;11.692;2023-04-15T06:22:40;10.77;;;8.70;;
6725;SDS011;3400;48.506;11.692;2023-04-15T06:25:09;10.30;;;8.67;;
6725;SDS011;3400;48.506;11.692;2023-04-15T06:27:39;9.67;;;8.60;;
6725;SDS011;3400;48.506;11.692;2023-04-15T06:30:08;9.10;;;8.23;;
6725;SDS011;3400;48.506;11.692;2023-04-15T06:32:38;9.90;;;8.90;;
6725;SDS011;3400;48.506;11.692;2023-04-15T06:35:07;9.20;;;8.30;;
6725;SDS011;3400;48.506;11.692;2023-04-15T06:37:37;9.87;;;8.87;;
6725;SDS011;3400;48.506;11.692;2023-04-15T06:40:09;9.30;;;8.20;;
6725;SDS011;3400;48.506;11.692;2023-04-15T06:42:38;10.93;;;8.73;;
6725;SDS011;3400;48.506;11.692;2023-04-15T06:45:09;13.93;;;9.43;;
6725;SDS011;3400;48.506;11.692;2023-04-15T06:47:38;8.50;;;7.70;;
6725;SDS011;3400;48.506;11.692;2023-04-15T06:50:08;10.73;;;8.23;;
6725;SDS011;3400;48.506;11.692;2023-04-15T06:52:37;11.90;;;9.63;;
6725;SDS011;3400;48.506;11.692;2023-04-15T06:55:08;9.50;;;8.53;;
6725;SDS011;3400;48.506;11.692;2023-04-15T06:57:37;9.30;;;8.40;;
6725;SDS011;3400;48.506;11.692;2023-04-15T07:00:07;8.33;;;7.30;;
6725;SDS011;3400;48.506;11.692;2023-04-15T07:02:38;11.00;;;8.47;;
6725;SDS011;3400;48.506;11.692;2023-04-15T07:05:07;13.10;;;8.97;;
6725;SDS011;3400;48.506;11.692;2023-04-15T07:07:37;11.17;;;8.80;;
6725;SDS011;3400;48.506;11.692;2023-04-15T07:10:08;12.87;;;8.77;;
6725;SDS011;3400;48.506;11.692;2023-04-15T07:12:37;9.57;;;8.33;;
6725;SDS011;3400;48.506;11.692;2023-04-15T07:15:07;10.53;;;8.80;;
6725;SDS011;3400;48.506;11.692;2023-04-15T07:17:36;13.60;;;8.17;;
6725;SDS011;3400;48.506;11.692;2023-04-15T07:20:06;9.27;;;8.17;;
6725;SDS011;3400;48.506;11.692;2023-04-15T07:22:35;9.83;;;7.87;;
6725;SDS011;3400;48.506;11.692;2023-04-15T07:25:05;8.97;;;8.07;;
6725;SDS011;3400;48.506;11.692;2023-04-15T07:27:36;9.13;;;7.37;;
6725;SDS011;3400;48.506;11.692;2023-04-15T07:30:06;9.27;;;8.37;;
6725;SDS011;3400;48.506;11.692;2023-04-15T07:32:36;9.10;;;8.13;;
6725;SDS011;3400;48.506;11.692;2023-04-15T07:35:06;9.50;;;8.60;;
6725;SDS011;3400;48.506;11.692;2023-04-15T07:37:35;9.53;;;7.83;;
6725;SDS011;3400;48.506;11.692;2023-04-15T07:40:05;9.80;;;8.70;;
6725;SDS011;3400;48.506;11.692;2023-04-15T07:42:34;9.93;;;8.20;;
6725;SDS011;3400;48.506;11.692;2023-04-15T07:45:06;11.77;;;8.57;;
6725;SDS011;3400;48.506;11.692;2023-04-15T07:47:35;9.73;;;8.47;;
6725;SDS011;3400;48.506;11.692;2023-04-15T07:50:05;9.33;;;8.17;;
6725;SDS011;3400;48.506;11.692;2023-04-15T07:52:34;9.23;;;7.37;;
6725;SDS011;3400;48.506;11.692;2023-04-15T07:55:05;9.77;;;7.80;;
6725;SDS011;3400;48.506;11.692;2023-04-15T07:57:35;7.87;;;7.10;;
6725;SDS011;3400;48.506;11.692;2023-04-15T08:00:07;9.20;;;7.73;;
6725;SDS011;3400;48.506;11.692;2023-04-15T08:02:40;8.67;;;7.73;;
6725;SDS011;3400;48.506;11.692;2023-04-15T08:05:09;8.67;;;7.53;;
6725;SDS011;3400;48.506;11.692;2023-04-15T08:07:38;7.97;;;7.27;;
6725;SDS011;3400;48.506;11.692;2023-04-15T08:10:08;8.53;;;7.50;;
6725;SDS011;3400;48.506;11.692;2023-04-15T08:12:38;8.07;;;7.03;;
6725;SDS011;3400;48.506;11.692;2023-04-15T08:15:09;14.83;;;9.27;;
6725;SDS011;3400;48.506;11.692;2023-04-15T08:17:39;14.33;;;11.03;;
6725;SDS011;3400;48.506;11.692;2023-04-15T08:20:08;12.17;;;9.93;;
6725;SDS011;3400;48.506;11.692;2023-04-15T08:22:38;11.57;;;9.53;;
6725;SDS011;3400;48.506;11.692;2023-04-15T08:25:08;10.43;;;9.33;;
6725;SDS011;3400;48.506;11.692;2023-04-15T08:27:37;10.43;;;8.13;;
6725;SDS011;3400;48.506;11.692;2023-04-15T08:30:07;9.10;;;8.23;;
6725;SDS011;3400;48.506;11.692;2023-04-15T08:32:38;8.60;;;7.23;;
6725;SDS011;3400;48.506;11.692;2023-04-15T08:35:07;8.37;;;7.17;;
6725;SDS011;3400;48.506;11.692;2023-04-15T08:37:36;8.93;;;7.20;;
6725;SDS011;3400;48.506;11.692;2023-04-15T08:40:06;7.23;;;6.57;;
6725;SDS011;3400;48.506;11.692;2023-04-15T08:42:36;8.43;;;7.30;;
6725;SDS011;3400;48.506;11.692;2023-04-15T08:45:06;7.30;;;6.60;;
6725;SDS011;3400;48.506;11.692;2023-04-15T08:47:38;8.20;;;6.20;;
6725;SDS011;3400;48.506;11.692;2023-04-15T08:50:09;7.00;;;6.20;;
6725;SDS011;3400;48.506;11.692;2023-04-15T08:52:38;7.27;;;6.57;;
6725;SDS011;3400;48.506;11.692;2023-04-15T08:55:08;7.27;;;6.53;;
6725;SDS011;3400;48.506;11.692;2023-04-15T08:57:38;6.70;;;6.00;;
6725;SDS011;3400;48.506;11.692;2023-04-15T09:00:08;9.83;;;5.93;;
6725;SDS011;3400;48.506;11.692;2023-04-15T09:02:40;7.13;;;5.97;;
6725;SDS011;3400;48.506;11.692;2023-04-15T09:05:11;7.17;;;6.50;;
6725;SDS011;3400;48.506;11.692;2023-04-15T09:07:40;7.05;;;6.35;;
6725;SDS011;3400;48.506;11.692;2023-04-15T09:10:09;6.00;;;5.53;;
6725;SDS011;3400;48.506;11.692;2023-04-15T09:12:39;8.27;;;6.43;;
6725;SDS011;3400;48.506;11.692;2023-04-15T09:15:10;7.90;;;7.10;;
6725;SDS011;3400;48.506;11.692;2023-04-15T09:17:42;7.00;;;6.20;;
6725;SDS011;3400;48.506;11.692;2023-04-15T09:20:13;7.63;;;6.27;;
6725;SDS011;3400;48.506;11.692;2023-04-15T09:22:45;7.00;;;6.33;;
6725;SDS011;3400;48.506;11.692;2023-04-15T09:25:27;8.83;;;6.30;;
6725;SDS011;3400;48.506;11.692;2023-04-15T09:27:56;11.00;;;7.97;;
6725;SDS011;3400;48.506;11.692;2023-04-15T09:30:26;7.93;;;6.13;;
6725;SDS011;3400;48.506;11.692;2023-04-15T09:32:58;6.93;;;6.17;;
6725;SDS011;3400;48.506;11.692;2023-04-15T09:35:28;7.47;;;6.77;;
6725;SDS011;3400;48.506;11.692;2023-04-15T09:38:01;9.27;;;6.60;;
6725;SDS011;3400;48.506;11.692;2023-04-15T09:40:31;6.97;;;6.27;;
6725;SDS011;3400;48.506;11.692;2023-04-15T09:43:00;8.17;;;6.57;;
6725;SDS011;3400;48.506;11.692;2023-04-15T09:45:30;10.73;;;7.07;;
6725;SDS011;3400;48.506;11.692;2023-04-15T09:48:13;7.10;;;6.40;;
6725;SDS011;3400;48.506;11.692;2023-04-15T09:50:43;8.53;;;6.70;;
6725;SDS011;3400;48.506;11.692;2023-04-15T09:53:14;8.53;;;6.30;;
6725;SDS011;3400;48.506;11.692;2023-04-15T09:55:44;7.90;;;7.03;;
6725;SDS011;3400;48.506;11.692;2023-04-15T09:58:16;7.13;;;6.40;;
6725;SDS011;3400;48.506;11.692;2023-04-15T10:00:46;8.67;;;7.10;;
6725;SDS011;3400;48.506;11.692;2023-04-15T10:03:18;7.03;;;6.33;;
6725;SDS011;3400;48.506;11.692;2023-04-15T10:05:48;7.70;;;6.80;;
6725;SDS011;3400;48.506;11.692;2023-04-15T10:08:19;8.07;;;7.10;;
6725;SDS011;3400;48.506;11.692;2023-04-15T10:10:50;7.07;;;6.43;;
6725;SDS011;3400;48.506;11.692;2023-04-15T10:13:20;6.93;;;6.30;;
6725;SDS011;3400;48.506;11.692;2023-04-15T10:15:50;10.00;;;7.43;;
6725;SDS011;3400;48.506;11.692;2023-04-15T10:18:22;8.33;;;6.00;;
6725;SDS011;3400;48.506;11.692;2023-04-15T10:20:53;6.97;;;6.20;;
6725;SDS011;3400;48.506;11.692;2023-04-15T10:23:22;7.17;;;5.50;;
6725;SDS011;3400;48.506;11.692;2023-04-15T10:25:52;9.27;;;6.57;;
6725;SDS011;3400;48.506;11.692;2023-04-15T10:28:21;6.97;;;6.27;;
6725;SDS011;3400;48.506;11.692;2023-04-15T10:30:51;8.37;;;6.53;;
6725;SDS011;3400;48.506;11.692;2023-04-15T10:33:22;7.80;;;5.63;;
6725;SDS011;3400;48.506;11.692;2023-04-15T10:35:53;7.60;;;6.67;;
6725;SDS011;3400;48.506;11.692;2023-04-15T10:38:32;6.73;;;5.57;;
6725;SDS011;3400;48.506;11.692;2023-04-15T10:41:12;7.87;;;6.20;;
6725;SDS011;3400;48.506;11.692;2023-04-15T10:43:44;8.33;;;6.30;;
6725;SDS011;3400;48.506;11.692;2023-04-15T10:46:15;7.07;;;5.90;;
6725;SDS011;3400;48.506;11.692;2023-04-15T10:48:52;5.97;;;5.37;;
6725;SDS011;3400;48.506;11.692;2023-04-15T10:51:28;7.07;;;6.17;;
6725;SDS011;3400;48.506;11.692;2023-04-15T10:53:58;8.07;;;5.73;;
6725;SDS011;3400;48.506;11.692;2023-04-15T10:56:28;7.70;;;6.27;;
6725;SDS011;3400;48.506;11.692;2023-04-15T10:58:58;7.20;;;6.07;;
6725;SDS011;3400;48.506;11.692;2023-04-15T11:07:16;5.93;;;5.30;;
6725;SDS011;3400;48.506;11.692;2023-04-15T11:10:00;9.83;;;6.17;;
6725;SDS011;3400;48.506;11.692;2023-04-15T11:12:33;7.00;;;5.70;;
6725;SDS011;3400;48.506;11.692;2023-04-15T11:17:50;6.53;;;5.10;;
6725;SDS011;3400;48.506;11.692;2023-04-15T11:20:19;6.67;;;5.17;;
6725;SDS011;3400;48.506;11.692;2023-04-15T11:22:51;6.80;;;4.97;;
6725;SDS011;3400;48.506;11.692;2023-04-15T11:25:23;7.70;;;5.33;;
6725;SDS011;3400;48.506;11.692;2023-04-15T11:27:53;5.23;;;4.73;;
6725;SDS011;3400;48.506;11.692;2023-04-15T11:30:23;5.47;;;4.97;;
6725;SDS011;3400;48.506;11.692;2023-04-15T11:32:53;10.17;;;5.90;;
6725;SDS011;3400;48.506;11.692;2023-04-15T11:35:22;8.27;;;5.50;;
6725;SDS011;3400;48.506;11.692;2023-04-15T11:37:53;5.43;;;4.87;;
6725;SDS011;3400;48.506;11.692;2023-04-15T11:40:23;6.23;;;5.47;;
6725;SDS011;3400;48.506;11.692;2023-04-15T11:43:02;6.03;;;5.50;;
6725;SDS011;3400;48.506;11.692;2023-04-15T11:45:36;5.83;;;5.33;;
6725;SDS011;3400;48.506;11.692;2023-04-15T11:48:06;6.47;;;5.73;;
6725;SDS011;3400;48.506;11.692;2023-04-15T11:50:36;9.83;;;6.13;;
6725;SDS011;3400;48.506;11.692;2023-04-15T11:53:08;5.33;;;4.83;;
6725;SDS011;3400;48.506;11.692;2023-04-15T11:55:42;6.20;;;5.60;;
6725;SDS011;3400;48.506;11.692;2023-04-15T11:58:12;7.57;;;5.93;;
6725;SDS011;3400;48.506;11.692;2023-04-15T12:00:44;7.93;;;5.27;;
6725;SDS011;3400;48.506;11.692;2023-04-15T12:03:16;5.83;;;5.33;;
6725;SDS011;3400;48.506;11.692;2023-04-15T12:06:03;5.90;;;5.20;;
6725;SDS011;3400;48.506;11.692;2023-04-15T12:11:31;8.03;;;4.80;;
6725;SDS011;3400;48.506;11.692;2023-04-15T12:14:02;6.57;;;5.83;;
6725;SDS011;3400;48.506;11.692;2023-04-15T12:16:31;5.80;;;5.20;;
6725;SDS011;3400;48.506;11.692;2023-04-15T12:19:04;6.67;;;5.97;;
6725;SDS011;3400;48.506;11.692;2023-04-15T12:21:33;7.67;;;5.93;;
6725;SDS011;3400;48.506;11.692;2023-04-15T12:24:02;4.60;;;4.30;;
6725;SDS011;3400;48.506;11.692;2023-04-15T12:26:32;5.90;;;4.63;;
6725;SDS011;3400;48.506;11.692;2023-04-15T12:29:02;4.57;;;4.17;;
6725;SDS011;3400;48.506;11.692;2023-04-15T12:31:30;5.40;;;4.50;;
6725;SDS011;3400;48.506;11.692;2023-04-15T12:33:59;3.50;;;3.20;;
6725;SDS011;3400;48.506;11.692;2023-04-15T12:36:28;7.27;;;3.57;;
6725;SDS011;3400;48.506;11.692;2023-04-15T12:39:01;5.37;;;3.30;;
6725;SDS011;3400;48.506;11.692;2023-04-15T12:41:29;9.17;;;6.13;;
6725;SDS011;3400;48.506;11.692;2023-04-15T12:43:59;7.00;;;5.07;;
6725;SDS011;3400;48.506;11.692;2023-04-15T12:46:27;6.13;;;3.93;;
6725;SDS011;3400;48.506;11.692;2023-04-15T12:48:55;4.30;;;3.90;;
6725;SDS011;3400;48.506;11.692;2023-04-15T12:51:24;7.47;;;5.90;;
6725;SDS011;3400;48.506;11.692;2023-04-15T12:53:53;10.13;;;5.13;;
6725;SDS011;3400;48.506;11.692;2023-04-15T12:56:32;4.23;;;3.80;;
6725;SDS011;3400;48.506;11.692;2023-04-15T12:59:01;7.30;;;4.77;;
6725;SDS011;3400;48.506;11.692;2023-04-15T13:01:29;6.57;;;4.83;;
6725;SDS011;3400;48.506;11.692;2023-04-15T13:03:57;12.77;;;8.30;;
6725;SDS011;3400;48.506;11.692;2023-04-15T13:06:25;3.93;;;3.63;;
6725;SDS011;3400;48.506;11.692;2023-04-15T13:08:53;5.63;;;3.73;;
6725;SDS011;3400;48.506;11.692;2023-04-15T13:11:21;4.33;;;3.93;;
6725;SDS011;3400;48.506;11.692;2023-04-15T13:13:50;3.30;;;3.00;;
6725;SDS011;3400;48.506;11.692;2023-04-15T13:16:19;9.53;;;4.50;;
6725;SDS011;3400;48.506;11.692;2023-04-15T13:18:47;3.17;;;2.87;;
6725;SDS011;3400;48.506;11.692;2023-04-15T13:21:15;4.60;;;4.20;;
6725;SDS011;3400;48.506;11.692;2023-04-15T13:23:43;4.20;;;3.50;;
6725;SDS011;3400;48.506;11.692;2023-04-15T13:26:11;5.00;;;3.80;;
6725;SDS011;3400;48.506;11.692;2023-04-15T13:28:39;4.77;;;3.87;;
6725;SDS011;3400;48.506;11.692;2023-04-15T13:31:06;8.83;;;6.37;;
6725;SDS011;3400;48.506;11.692;2023-04-15T13:33:36;12.90;;;6.87;;
6725;SDS011;3400;48.506;11.692;2023-04-15T13:36:04;8.87;;;6.10;;
6725;SDS011;3400;48.506;11.692;2023-04-15T13:38:31;4.07;;;3.77;;
6725;SDS011;3400;48.506;11.692;2023-04-15T13:40:59;6.87;;;5.53;;
6725;SDS011;3400;48.506;11.692;2023-04-15T13:43:27;3.80;;;3.50;;
6725;SDS011;3400;48.506;11.692;2023-04-15T13:45:55;3.90;;;3.60;;
6725;SDS011;3400;48.506;11.692;2023-04-15T13:48:24;4.70;;;3.70;;
6725;SDS011;3400;48.506;11.692;2023-04-15T13:50:53;3.03;;;2.83;;
6725;SDS011;3400;48.506;11.692;2023-04-15T13:53:21;4.50;;;3.90;;
6725;SDS011;3400;48.506;11.692;2023-04-15T13:55:49;3.13;;;2.80;;
6725;SDS011;3400;48.506;11.692;2023-04-15T13:58:16;4.00;;;3.37;;
6725;SDS011;3400;48.506;11.692;2023-04-15T14:00:44;3.27;;;2.97;;
6725;SDS011;3400;48.506;11.692;2023-04-15T14:03:12;3.13;;;2.90;;
6725;SDS011;3400;48.506;11.692;2023-04-15T14:05:40;2.83;;;2.57;;
6725;SDS011;3400;48.506;11.692;2023-04-15T14:08:09;3.63;;;3.33;;
6725;SDS011;3400;48.506;11.692;2023-04-15T14:10:40;3.67;;;3.10;;
6725;SDS011;3400;48.506;11.692;2023-04-15T14:13:11;3.77;;;3.03;;
6725;SDS011;3400;48.506;11.692;2023-04-15T14:15:39;5.23;;;3.57;;
6725;SDS011;3400;48.506;11.692;2023-04-15T14:18:08;3.10;;;2.90;;
6725;SDS011;3400;48.506;11.692;2023-04-15T14:20:36;3.40;;;3.10;;
6725;SDS011;3400;48.506;11.692;2023-04-15T14:23:05;3.73;;;3.00;;
6725;SDS011;3400;48.506;11.692;2023-04-15T14:25:35;5.80;;;3.53;;
6725;SDS011;3400;48.506;11.692;2023-04-15T14:28:05;3.80;;;3.50;;
6725;SDS011;3400;48.506;11.692;2023-04-15T14:30:32;4.70;;;3.57;;
6725;SDS011;3400;48.506;11.692;2023-04-15T14:33:00;3.37;;;3.00;;
6725;SDS011;3400;48.506;11.692;2023-04-15T14:35:28;3.43;;;3.13;;
6725;SDS011;3400;48.506;11.692;2023-04-15T14:37:57;3.10;;;2.90;;
6725;SDS011;3400;48.506;11.692;2023-04-15T14:40:25;4.67;;;3.57;;
6725;SDS011;3400;48.506;11.692;2023-04-15T14:42:55;3.87;;;3.33;;
6725;SDS011;3400;48.506;11.692;2023-04-15T14:45:23;3.60;;;3.30;;
6725;SDS011;3400;48.506;11.692;2023-04-15T14:47:51;3.87;;;3.50;;
6725;SDS011;3400;48.506;11.692;2023-04-15T14:50:19;3.70;;;3.40;;
6725;SDS011;3400;48.506;11.692;2023-04-15T14:52:47;3.90;;;3.23;;
6725;SDS011;3400;48.506;11.692;2023-04-15T14:55:15;3.93;;;3.23;;
6725;SDS011;3400;48.506;11.692;2023-04-15T14:57:43;4.40;;;3.37;;
6725;SDS011;3400;48.506;11.692;2023-04-15T15:00:13;3.33;;;3.03;;
6725;SDS011;3400;48.506;11.692;2023-04-15T15:02:42;4.80;;;3.73;;
6725;SDS011;3400;48.506;11.692;2023-04-15T15:05:12;4.00;;;3.00;;
6725;SDS011;3400;48.506;11.692;2023-04-15T15:07:40;3.27;;;2.97;;
6725;SDS011;3400;48.506;11.692;2023-04-15T15:10:08;3.20;;;3.00;;
6725;SDS011;3400;48.506;11.692;2023-04-15T15:12:36;3.20;;;2.80;;
6725;SDS011;3400;48.506;11.692;2023-04-15T15:15:04;3.90;;;3.03;;
6725;SDS011;3400;48.506;11.692;2023-04-15T15:17:35;4.60;;;3.40;;
6725;SDS011;3400;48.506;11.692;2023-04-15T15:20:03;5.77;;;3.00;;
6725;SDS011;3400;48.506;11.692;2023-04-15T15:22:31;3.17;;;2.87;;